sensor_id;sensor_type;location;lat;lon;timestamp;P1;durP1;ratioP1;P2;durP2;ratioP2
4638;SDS011;2332;38.646;-9.154;2023-02-14T00:01:16;22.63;;;8.50;;
4638;SDS011;2332;38.646;-9.154;2023-02-14T00:03:44;15.23;;;7.37;;
4638;SDS011;2332;38.646;-9.154;2023-02-14T00:06:11;22.53;;;8.00;;
4638;SDS011;2332;38.646;-9.154;2023-02-14T00:08:36;16.60;;;7.80;;
4638;SDS011;2332;38.646;-9.154;2023-02-14T00:11:02;17.57;;;6.73;;
4638;SDS011;2332;38.646;-9.154;2023-02-14T00:13:28;22.23;;;6.80;;
4638;SDS011;2332;38.646;-9.154;2023-02-14T00:15:53;21.47;;;6.37;;
4638;SDS011;2332;38.646;-9.154;2023-02-14T00:18:19;19.27;;;5.90;;
4638;SDS011;2332;38.646;-9.154;2023-02-14T00:20:45;15.43;;;6.33;;
4638;SDS011;2332;38.646;-9.154;2023-02-14T00:23:10;20.53;;;6.40;;
4638;SDS011;2332;38.646;-9.154;2023-02-14T00:25:35;16.20;;;6.97;;
4638;SDS011;2332;38.646;-9.154;2023-02-14T00:28:01;22.53;;;7.23;;
4638;SDS011;2332;38.646;-9.154;2023-02-14T00:30:26;13.57;;;5.87;;
4638;SDS011;2332;38.646;-9.154;2023-02-14T00:32:52;18.03;;;6.07;;
4638;SDS011;2332;38.646;-9.154;2023-02-14T00:35:17;12.20;;;5.60;;
4638;SDS011;2332;38.646;-9.154;2023-02-14T00:37:44;20.93;;;5.67;;
4638;SDS011;2332;38.646;-9.154;2023-02-14T00:40:09;16.37;;;5.77;;
4638;SDS011;2332;38.646;-9.154;2023-02-14T00:42:37;9.60;;;5.40;;
4638;SDS011;2332;38.646;-9.154;2023-02-14T00:45:02;20.40;;;6.93;;
4638;SDS011;2332;38.646;-9.154;2023-02-14T00:47:28;27.47;;;6.00;;
4638;SDS011;2332;38.646;-9.154;2023-02-14T00:49:53;14.70;;;6.37;;
4638;SDS011;2332;38.646;-9.154;2023-02-14T00:52:19;23.23;;;6.20;;
4638;SDS011;2332;38.646;-9.154;2023-02-14T00:54:44;20.17;;;6.67;;
4638;SDS011;2332;38.646;-9.154;2023-02-14T00:57:12;23.00;;;5.73;;
4638;SDS011;2332;38.646;-9.154;2023-02-14T00:59:37;12.03;;;5.80;;
4638;SDS011;2332;38.646;-9.154;2023-02-14T01:02:03;22.77;;;5.87;;
4638;SDS011;2332;38.646;-9.154;2023-02-14T01:04:28;15.60;;;6.40;;
4638;SDS011;2332;38.646;-9.154;2023-02-14T01:06:53;17.07;;;6.27;;
4638;SDS011;2332;38.646;-9.154;2023-02-14T01:09:19;22.87;;;5.67;;
4638;SDS011;2332;38.646;-9.154;2023-02-14T01:11:44;12.00;;;5.50;;
4638;SDS011;2332;38.646;-9.154;2023-02-14T01:14:10;15.20;;;5.97;;
4638;SDS011;2332;38.646;-9.154;2023-02-14T01:16:36;19.97;;;5.80;;
4638;SDS011;2332;38.646;-9.154;2023-02-14T01:19:02;14.10;;;6.07;;
4638;SDS011;2332;38.646;-9.154;2023-02-14T01:21:29;21.77;;;5.33;;
4638;SDS011;2332;38.646;-9.154;2023-02-14T01:23:56;10.87;;;5.07;;
4638;SDS011;2332;38.646;-9.154;2023-02-14T01:26:21;20.40;;;5.90;;
4638;SDS011;2332;38.646;-9.154;2023-02-14T01:28:47;19.37;;;6.13;;
4638;SDS011;2332;38.646;-9.154;2023-02-14T01:31:15;17.43;;;5.70;;
4638;SDS011;2332;38.646;-9.154;2023-02-14T01:33:42;27.77;;;5.37;;
4638;SDS011;2332;38.646;-9.154;2023-02-14T01:36:18;14.47;;;5.53;;
4638;SDS011;2332;38.646;-9.154;2023-02-14T01:38:43;22.40;;;5.83;;
4638;SDS011;2332;38.646;-9.154;2023-02-14T01:41:08;19.93;;;5.33;;
4638;SDS011;2332;38.646;-9.154;2023-02-14T01:46:18;14.97;;;5.27;;
4638;SDS011;2332;38.646;-9.154;2023-02-14T01:48:44;24.60;;;5.50;;
4638;SDS011;2332;38.646;-9.154;2023-02-14T01:51:09;16.93;;;5.70;;
4638;SDS011;2332;38.646;-9.154;2023-02-14T01:53:37;19.03;;;5.03;;
4638;SDS011;2332;38.646;-9.154;2023-02-14T01:56:04;31.33;;;6.40;;
4638;SDS011;2332;38.646;-9.154;2023-02-14T01:58:32;20.70;;;5.80;;
4638;SDS011;2332;38.646;-9.154;2023-02-14T02:01:01;16.33;;;5.63;;
4638;SDS011;2332;38.646;-9.154;2023-02-14T02:03:29;19.50;;;7.33;;
4638;SDS011;2332;38.646;-9.154;2023-02-14T02:05:56;21.27;;;5.90;;
4638;SDS011;2332;38.646;-9.154;2023-02-14T02:08:23;22.57;;;6.00;;
4638;SDS011;2332;38.646;-9.154;2023-02-14T02:10:49;15.27;;;5.40;;
4638;SDS011;2332;38.646;-9.154;2023-02-14T02:13:15;21.63;;;5.90;;
4638;SDS011;2332;38.646;-9.154;2023-02-14T02:15:46;15.43;;;5.47;;
4638;SDS011;2332;38.646;-9.154;2023-02-14T02:18:34;24.53;;;6.63;;
4638;SDS011;2332;38.646;-9.154;2023-02-14T02:31:06;20.40;;;6.10;;
4638;SDS011;2332;38.646;-9.154;2023-02-14T02:33:45;26.27;;;5.23;;
4638;SDS011;2332;38.646;-9.154;2023-02-14T02:36:31;13.93;;;5.23;;
4638;SDS011;2332;38.646;-9.154;2023-02-14T02:44:17;19.07;;;5.47;;
4638;SDS011;2332;38.646;-9.154;2023-02-14T02:46:59;17.37;;;5.97;;
4638;SDS011;2332;38.646;-9.154;2023-02-14T02:52:51;17.37;;;5.40;;
4638;SDS011;2332;38.646;-9.154;2023-02-14T02:55:29;23.37;;;6.30;;
4638;SDS011;2332;38.646;-9.154;2023-02-14T02:58:21;20.03;;;6.10;;
4638;SDS011;2332;38.646;-9.154;2023-02-14T03:00:47;15.60;;;5.77;;
4638;SDS011;2332;38.646;-9.154;2023-02-14T03:03:14;15.30;;;5.33;;
4638;SDS011;2332;38.646;-9.154;2023-02-14T03:05:58;15.47;;;5.90;;
4638;SDS011;2332;38.646;-9.154;2023-02-14T03:08:24;15.00;;;5.10;;
4638;SDS011;2332;38.646;-9.154;2023-02-14T03:10:50;15.60;;;5.30;;
4638;SDS011;2332;38.646;-9.154;2023-02-14T03:36:58;19.80;;;5.77;;
4638;SDS011;2332;38.646;-9.154;2023-02-14T03:39:31;20.17;;;6.63;;
4638;SDS011;2332;38.646;-9.154;2023-02-14T03:42:00;19.30;;;6.60;;
4638;SDS011;2332;38.646;-9.154;2023-02-14T03:44:28;19.13;;;6.83;;
4638;SDS011;2332;38.646;-9.154;2023-02-14T03:46:56;27.40;;;6.67;;
4638;SDS011;2332;38.646;-9.154;2023-02-14T03:49:24;23.17;;;7.20;;
4638;SDS011;2332;38.646;-9.154;2023-02-14T03:51:51;23.53;;;7.50;;
4638;SDS011;2332;38.646;-9.154;2023-02-14T03:54:19;15.07;;;6.70;;
4638;SDS011;2332;38.646;-9.154;2023-02-14T03:56:46;16.97;;;6.77;;
4638;SDS011;2332;38.646;-9.154;2023-02-14T03:59:18;31.20;;;8.57;;
4638;SDS011;2332;38.646;-9.154;2023-02-14T04:01:49;23.50;;;6.93;;
4638;SDS011;2332;38.646;-9.154;2023-02-14T04:04:18;20.17;;;6.80;;
4638;SDS011;2332;38.646;-9.154;2023-02-14T04:06:45;16.23;;;7.00;;
4638;SDS011;2332;38.646;-9.154;2023-02-14T04:09:10;20.33;;;7.17;;
4638;SDS011;2332;38.646;-9.154;2023-02-14T04:11:35;16.13;;;6.70;;
4638;SDS011;2332;38.646;-9.154;2023-02-14T04:14:02;21.10;;;7.27;;
4638;SDS011;2332;38.646;-9.154;2023-02-14T04:16:27;28.67;;;7.43;;
4638;SDS011;2332;38.646;-9.154;2023-02-14T04:18:53;22.07;;;7.60;;
4638;SDS011;2332;38.646;-9.154;2023-02-14T04:21:37;17.90;;;6.77;;
4638;SDS011;2332;38.646;-9.154;2023-02-14T04:24:02;15.97;;;6.97;;
4638;SDS011;2332;38.646;-9.154;2023-02-14T04:26:27;24.33;;;7.90;;
4638;SDS011;2332;38.646;-9.154;2023-02-14T04:28:53;22.00;;;7.10;;
4638;SDS011;2332;38.646;-9.154;2023-02-14T04:31:18;20.43;;;7.50;;
4638;SDS011;2332;38.646;-9.154;2023-02-14T04:33:43;23.10;;;7.63;;
4638;SDS011;2332;38.646;-9.154;2023-02-14T04:36:10;20.40;;;7.83;;
4638;SDS011;2332;38.646;-9.154;2023-02-14T04:38:35;20.17;;;7.73;;
4638;SDS011;2332;38.646;-9.154;2023-02-14T04:41:01;29.57;;;7.40;;
4638;SDS011;2332;38.646;-9.154;2023-02-14T04:43:27;15.43;;;7.10;;
4638;SDS011;2332;38.646;-9.154;2023-02-14T04:45:52;20.70;;;7.60;;
4638;SDS011;2332;38.646;-9.154;2023-02-14T04:48:18;23.50;;;7.70;;
4638;SDS011;2332;38.646;-9.154;2023-02-14T04:50:43;21.20;;;8.30;;
4638;SDS011;2332;38.646;-9.154;2023-02-14T04:53:08;15.70;;;7.20;;
4638;SDS011;2332;38.646;-9.154;2023-02-14T04:55:34;18.90;;;7.13;;
4638;SDS011;2332;38.646;-9.154;2023-02-14T04:57:59;16.73;;;7.43;;
4638;SDS011;2332;38.646;-9.154;2023-02-14T05:00:24;18.70;;;7.87;;
4638;SDS011;2332;38.646;-9.154;2023-02-14T05:02:50;20.43;;;7.60;;
4638;SDS011;2332;38.646;-9.154;2023-02-14T05:05:15;20.63;;;8.30;;
4638;SDS011;2332;38.646;-9.154;2023-02-14T05:07:41;23.03;;;8.67;;
4638;SDS011;2332;38.646;-9.154;2023-02-14T05:10:11;19.53;;;8.30;;
4638;SDS011;2332;38.646;-9.154;2023-02-14T05:12:37;19.30;;;8.40;;
4638;SDS011;2332;38.646;-9.154;2023-02-14T05:15:02;25.07;;;8.73;;
4638;SDS011;2332;38.646;-9.154;2023-02-14T05:17:28;25.77;;;7.90;;
4638;SDS011;2332;38.646;-9.154;2023-02-14T05:19:53;18.40;;;8.00;;
4638;SDS011;2332;38.646;-9.154;2023-02-14T05:22:18;22.80;;;8.33;;
4638;SDS011;2332;38.646;-9.154;2023-02-14T05:24:44;19.53;;;8.83;;
4638;SDS011;2332;38.646;-9.154;2023-02-14T05:27:09;19.40;;;8.00;;
4638;SDS011;2332;38.646;-9.154;2023-02-14T05:29:36;20.80;;;8.50;;
4638;SDS011;2332;38.646;-9.154;2023-02-14T05:32:01;16.80;;;9.20;;
4638;SDS011;2332;38.646;-9.154;2023-02-14T05:34:26;35.03;;;9.80;;
4638;SDS011;2332;38.646;-9.154;2023-02-14T05:36:52;21.10;;;8.40;;
4638;SDS011;2332;38.646;-9.154;2023-02-14T05:39:19;17.60;;;7.90;;
4638;SDS011;2332;38.646;-9.154;2023-02-14T05:41:44;28.30;;;9.33;;
4638;SDS011;2332;38.646;-9.154;2023-02-14T05:44:09;25.53;;;8.73;;
4638;SDS011;2332;38.646;-9.154;2023-02-14T05:46:35;27.60;;;10.20;;
4638;SDS011;2332;38.646;-9.154;2023-02-14T05:49:00;32.57;;;9.00;;
4638;SDS011;2332;38.646;-9.154;2023-02-14T05:51:25;22.27;;;9.30;;
4638;SDS011;2332;38.646;-9.154;2023-02-14T05:53:53;19.77;;;9.80;;
4638;SDS011;2332;38.646;-9.154;2023-02-14T05:56:19;18.23;;;9.00;;
4638;SDS011;2332;38.646;-9.154;2023-02-14T05:58:44;27.83;;;9.20;;
4638;SDS011;2332;38.646;-9.154;2023-02-14T06:01:09;22.97;;;9.50;;
4638;SDS011;2332;38.646;-9.154;2023-02-14T06:03:35;22.30;;;8.53;;
4638;SDS011;2332;38.646;-9.154;2023-02-14T06:06:00;17.30;;;8.40;;
4638;SDS011;2332;38.646;-9.154;2023-02-14T06:08:26;22.47;;;8.83;;
4638;SDS011;2332;38.646;-9.154;2023-02-14T06:10:51;21.73;;;9.00;;
4638;SDS011;2332;38.646;-9.154;2023-02-14T06:13:16;28.00;;;10.30;;
4638;SDS011;2332;38.646;-9.154;2023-02-14T06:15:42;14.90;;;8.90;;
4638;SDS011;2332;38.646;-9.154;2023-02-14T06:18:07;22.50;;;8.93;;
4638;SDS011;2332;38.646;-9.154;2023-02-14T06:20:33;23.47;;;10.17;;
4638;SDS011;2332;38.646;-9.154;2023-02-14T06:22:58;24.90;;;9.10;;
4638;SDS011;2332;38.646;-9.154;2023-02-14T06:25:24;18.53;;;8.60;;
4638;SDS011;2332;38.646;-9.154;2023-02-14T06:27:50;23.13;;;8.97;;
4638;SDS011;2332;38.646;-9.154;2023-02-14T06:30:16;28.20;;;10.17;;
4638;SDS011;2332;38.646;-9.154;2023-02-14T06:32:41;23.93;;;8.87;;
4638;SDS011;2332;38.646;-9.154;2023-02-14T06:35:07;24.60;;;9.40;;
4638;SDS011;2332;38.646;-9.154;2023-02-14T06:37:32;22.30;;;8.10;;
4638;SDS011;2332;38.646;-9.154;2023-02-14T06:39:58;22.10;;;8.80;;
4638;SDS011;2332;38.646;-9.154;2023-02-14T06:42:23;21.03;;;8.30;;
4638;SDS011;2332;38.646;-9.154;2023-02-14T06:44:49;19.40;;;7.93;;
4638;SDS011;2332;38.646;-9.154;2023-02-14T06:47:14;18.57;;;7.57;;
4638;SDS011;2332;38.646;-9.154;2023-02-14T06:49:40;17.87;;;7.30;;
4638;SDS011;2332;38.646;-9.154;2023-02-14T06:52:05;26.40;;;7.90;;
4638;SDS011;2332;38.646;-9.154;2023-02-14T06:54:30;16.10;;;6.30;;
4638;SDS011;2332;38.646;-9.154;2023-02-14T06:56:56;16.10;;;7.10;;
4638;SDS011;2332;38.646;-9.154;2023-02-14T06:59:21;15.00;;;7.57;;
4638;SDS011;2332;38.646;-9.154;2023-02-14T07:01:47;28.60;;;7.37;;
4638;SDS011;2332;38.646;-9.154;2023-02-14T07:04:12;17.70;;;6.33;;
4638;SDS011;2332;38.646;-9.154;2023-02-14T07:06:38;20.93;;;6.73;;
4638;SDS011;2332;38.646;-9.154;2023-02-14T07:09:03;9.00;;;5.57;;
4638;SDS011;2332;38.646;-9.154;2023-02-14T07:11:29;15.67;;;6.37;;
4638;SDS011;2332;38.646;-9.154;2023-02-14T07:13:54;17.13;;;7.03;;
4638;SDS011;2332;38.646;-9.154;2023-02-14T07:16:19;18.90;;;6.67;;
4638;SDS011;2332;38.646;-9.154;2023-02-14T07:18:45;16.13;;;6.27;;
4638;SDS011;2332;38.646;-9.154;2023-02-14T07:21:10;17.83;;;6.07;;
4638;SDS011;2332;38.646;-9.154;2023-02-14T07:23:36;13.60;;;6.90;;
4638;SDS011;2332;38.646;-9.154;2023-02-14T07:26:01;15.03;;;6.30;;
4638;SDS011;2332;38.646;-9.154;2023-02-14T07:28:27;18.33;;;6.67;;
4638;SDS011;2332;38.646;-9.154;2023-02-14T07:30:54;32.10;;;6.27;;
4638;SDS011;2332;38.646;-9.154;2023-02-14T07:33:19;19.17;;;5.67;;
4638;SDS011;2332;38.646;-9.154;2023-02-14T07:35:45;14.27;;;6.17;;
4638;SDS011;2332;38.646;-9.154;2023-02-14T07:38:10;15.73;;;5.90;;
4638;SDS011;2332;38.646;-9.154;2023-02-14T07:40:35;26.33;;;6.40;;
4638;SDS011;2332;38.646;-9.154;2023-02-14T07:43:01;16.30;;;6.60;;
4638;SDS011;2332;38.646;-9.154;2023-02-14T07:45:26;19.67;;;7.50;;
4638;SDS011;2332;38.646;-9.154;2023-02-14T07:47:52;27.60;;;8.27;;
4638;SDS011;2332;38.646;-9.154;2023-02-14T07:50:19;18.37;;;7.00;;
4638;SDS011;2332;38.646;-9.154;2023-02-14T07:52:44;18.60;;;7.60;;
4638;SDS011;2332;38.646;-9.154;2023-02-14T07:55:10;17.40;;;7.57;;
4638;SDS011;2332;38.646;-9.154;2023-02-14T07:57:38;15.60;;;7.30;;
4638;SDS011;2332;38.646;-9.154;2023-02-14T08:00:04;19.47;;;7.60;;
4638;SDS011;2332;38.646;-9.154;2023-02-14T08:02:30;16.77;;;7.43;;
4638;SDS011;2332;38.646;-9.154;2023-02-14T08:04:55;22.83;;;6.97;;
4638;SDS011;2332;38.646;-9.154;2023-02-14T08:07:20;24.10;;;6.77;;
4638;SDS011;2332;38.646;-9.154;2023-02-14T08:09:46;13.60;;;6.50;;
4638;SDS011;2332;38.646;-9.154;2023-02-14T08:12:11;21.13;;;6.73;;
4638;SDS011;2332;38.646;-9.154;2023-02-14T08:14:55;21.40;;;7.87;;
4638;SDS011;2332;38.646;-9.154;2023-02-14T08:17:41;22.90;;;6.67;;
4638;SDS011;2332;38.646;-9.154;2023-02-14T08:20:09;19.23;;;6.37;;
4638;SDS011;2332;38.646;-9.154;2023-02-14T08:22:34;23.57;;;7.20;;
4638;SDS011;2332;38.646;-9.154;2023-02-14T08:25:00;20.87;;;6.20;;
4638;SDS011;2332;38.646;-9.154;2023-02-14T08:27:25;17.03;;;6.30;;
4638;SDS011;2332;38.646;-9.154;2023-02-14T08:29:50;13.80;;;5.80;;
4638;SDS011;2332;38.646;-9.154;2023-02-14T08:32:16;15.63;;;6.13;;
4638;SDS011;2332;38.646;-9.154;2023-02-14T08:34:45;14.17;;;6.60;;
4638;SDS011;2332;38.646;-9.154;2023-02-14T08:37:10;21.23;;;6.00;;
4638;SDS011;2332;38.646;-9.154;2023-02-14T08:39:35;22.17;;;6.13;;
4638;SDS011;2332;38.646;-9.154;2023-02-14T08:42:02;23.37;;;7.07;;
4638;SDS011;2332;38.646;-9.154;2023-02-14T08:44:27;15.07;;;5.63;;
4638;SDS011;2332;38.646;-9.154;2023-02-14T08:46:53;17.93;;;6.30;;
4638;SDS011;2332;38.646;-9.154;2023-02-14T08:49:18;16.83;;;6.83;;
4638;SDS011;2332;38.646;-9.154;2023-02-14T08:51:43;19.83;;;6.23;;
4638;SDS011;2332;38.646;-9.154;2023-02-14T08:54:09;17.90;;;6.10;;
4638;SDS011;2332;38.646;-9.154;2023-02-14T08:56:34;24.50;;;5.33;;
4638;SDS011;2332;38.646;-9.154;2023-02-14T08:59:00;30.90;;;6.60;;
4638;SDS011;2332;38.646;-9.154;2023-02-14T09:01:25;21.47;;;6.47;;
4638;SDS011;2332;38.646;-9.154;2023-02-14T09:03:53;13.40;;;5.93;;
4638;SDS011;2332;38.646;-9.154;2023-02-14T09:06:18;18.63;;;6.63;;
4638;SDS011;2332;38.646;-9.154;2023-02-14T09:08:43;21.17;;;6.10;;
4638;SDS011;2332;38.646;-9.154;2023-02-14T09:11:13;21.73;;;5.70;;
4638;SDS011;2332;38.646;-9.154;2023-02-14T09:13:40;14.03;;;5.80;;
4638;SDS011;2332;38.646;-9.154;2023-02-14T09:16:06;19.97;;;5.93;;
4638;SDS011;2332;38.646;-9.154;2023-02-14T09:18:31;16.80;;;6.73;;
4638;SDS011;2332;38.646;-9.154;2023-02-14T09:20:57;17.13;;;7.70;;
4638;SDS011;2332;38.646;-9.154;2023-02-14T09:23:22;23.93;;;6.70;;
4638;SDS011;2332;38.646;-9.154;2023-02-14T09:25:47;15.03;;;6.43;;
4638;SDS011;2332;38.646;-9.154;2023-02-14T09:28:13;18.67;;;6.43;;
4638;SDS011;2332;38.646;-9.154;2023-02-14T09:30:38;9.70;;;5.67;;
4638;SDS011;2332;38.646;-9.154;2023-02-14T09:33:04;19.47;;;6.90;;
4638;SDS011;2332;38.646;-9.154;2023-02-14T09:35:29;21.67;;;7.13;;
4638;SDS011;2332;38.646;-9.154;2023-02-14T09:37:58;18.80;;;5.60;;
4638;SDS011;2332;38.646;-9.154;2023-02-14T09:40:41;16.93;;;6.87;;
4638;SDS011;2332;38.646;-9.154;2023-02-14T09:43:08;13.30;;;7.20;;
4638;SDS011;2332;38.646;-9.154;2023-02-14T09:45:35;19.13;;;6.57;;
4638;SDS011;2332;38.646;-9.154;2023-02-14T09:53:24;21.33;;;7.27;;
4638;SDS011;2332;38.646;-9.154;2023-02-14T09:56:31;13.30;;;6.40;;
4638;SDS011;2332;38.646;-9.154;2023-02-14T10:01:08;16.33;;;6.47;;
4638;SDS011;2332;38.646;-9.154;2023-02-14T10:03:47;16.90;;;7.40;;
4638;SDS011;2332;38.646;-9.154;2023-02-14T10:06:37;18.13;;;7.00;;
4638;SDS011;2332;38.646;-9.154;2023-02-14T10:09:13;20.87;;;7.10;;
4638;SDS011;2332;38.646;-9.154;2023-02-14T10:11:42;18.83;;;7.30;;
4638;SDS011;2332;38.646;-9.154;2023-02-14T10:14:11;22.77;;;8.60;;
4638;SDS011;2332;38.646;-9.154;2023-02-14T10:16:41;19.20;;;6.70;;
4638;SDS011;2332;38.646;-9.154;2023-02-14T10:21:40;18.53;;;8.10;;
4638;SDS011;2332;38.646;-9.154;2023-02-14T10:24:10;15.13;;;7.17;;
4638;SDS011;2332;38.646;-9.154;2023-02-14T10:26:38;20.50;;;7.77;;
4638;SDS011;2332;38.646;-9.154;2023-02-14T10:29:06;33.47;;;8.20;;
4638;SDS011;2332;38.646;-9.154;2023-02-14T10:42:56;16.50;;;6.80;;
4638;SDS011;2332;38.646;-9.154;2023-02-14T10:45:27;18.93;;;7.30;;
4638;SDS011;2332;38.646;-9.154;2023-02-14T10:48:05;17.53;;;8.60;;
4638;SDS011;2332;38.646;-9.154;2023-02-14T10:53:19;20.13;;;8.10;;
4638;SDS011;2332;38.646;-9.154;2023-02-14T10:55:51;18.40;;;7.37;;
4638;SDS011;2332;38.646;-9.154;2023-02-14T10:58:20;12.67;;;8.03;;
4638;SDS011;2332;38.646;-9.154;2023-02-14T11:03:14;17.80;;;6.60;;
4638;SDS011;2332;38.646;-9.154;2023-02-14T11:05:40;14.70;;;7.30;;
4638;SDS011;2332;38.646;-9.154;2023-02-14T11:08:13;17.80;;;7.33;;
4638;SDS011;2332;38.646;-9.154;2023-02-14T11:10:39;19.60;;;7.03;;
4638;SDS011;2332;38.646;-9.154;2023-02-14T11:13:26;15.17;;;7.00;;
4638;SDS011;2332;38.646;-9.154;2023-02-14T11:15:50;18.50;;;7.37;;
4638;SDS011;2332;38.646;-9.154;2023-02-14T11:18:24;18.47;;;7.07;;
4638;SDS011;2332;38.646;-9.154;2023-02-14T11:20:59;19.77;;;6.90;;
4638;SDS011;2332;38.646;-9.154;2023-02-14T11:23:25;18.40;;;6.57;;
4638;SDS011;2332;38.646;-9.154;2023-02-14T11:25:51;22.27;;;6.23;;
4638;SDS011;2332;38.646;-9.154;2023-02-14T11:28:19;10.67;;;6.13;;
4638;SDS011;2332;38.646;-9.154;2023-02-14T11:30:45;17.97;;;6.20;;
4638;SDS011;2332;38.646;-9.154;2023-02-14T11:33:22;21.40;;;5.50;;
4638;SDS011;2332;38.646;-9.154;2023-02-14T11:35:54;16.23;;;6.43;;
4638;SDS011;2332;38.646;-9.154;2023-02-14T11:38:26;12.50;;;6.10;;
4638;SDS011;2332;38.646;-9.154;2023-02-14T11:40:55;11.83;;;5.50;;
4638;SDS011;2332;38.646;-9.154;2023-02-14T11:43:32;11.93;;;6.20;;
4638;SDS011;2332;38.646;-9.154;2023-02-14T11:48:38;19.03;;;6.20;;
4638;SDS011;2332;38.646;-9.154;2023-02-14T11:53:51;11.30;;;5.77;;
4638;SDS011;2332;38.646;-9.154;2023-02-14T11:56:19;11.83;;;5.33;;
4638;SDS011;2332;38.646;-9.154;2023-02-14T11:58:49;13.90;;;5.90;;
4638;SDS011;2332;38.646;-9.154;2023-02-14T12:03:49;12.23;;;4.60;;
4638;SDS011;2332;38.646;-9.154;2023-02-14T12:06:25;13.77;;;4.23;;
4638;SDS011;2332;38.646;-9.154;2023-02-14T12:08:50;26.10;;;5.77;;
4638;SDS011;2332;38.646;-9.154;2023-02-14T12:11:17;15.37;;;5.50;;
4638;SDS011;2332;38.646;-9.154;2023-02-14T12:13:50;8.97;;;4.63;;
4638;SDS011;2332;38.646;-9.154;2023-02-14T12:16:18;10.67;;;4.67;;
4638;SDS011;2332;38.646;-9.154;2023-02-14T12:24:05;10.47;;;5.30;;
4638;SDS011;2332;38.646;-9.154;2023-02-14T12:29:08;17.60;;;5.60;;
4638;SDS011;2332;38.646;-9.154;2023-02-14T12:31:35;16.80;;;5.07;;
4638;SDS011;2332;38.646;-9.154;2023-02-14T12:34:01;13.97;;;5.23;;
4638;SDS011;2332;38.646;-9.154;2023-02-14T12:39:20;12.57;;;4.50;;
4638;SDS011;2332;38.646;-9.154;2023-02-14T12:41:59;13.60;;;4.17;;
4638;SDS011;2332;38.646;-9.154;2023-02-14T12:52:36;10.53;;;4.33;;
4638;SDS011;2332;38.646;-9.154;2023-02-14T12:57:48;14.60;;;4.33;;
4638;SDS011;2332;38.646;-9.154;2023-02-14T13:03:45;14.60;;;4.47;;
4638;SDS011;2332;38.646;-9.154;2023-02-14T13:11:17;10.40;;;4.63;;
4638;SDS011;2332;38.646;-9.154;2023-02-14T13:16:17;16.33;;;4.93;;
4638;SDS011;2332;38.646;-9.154;2023-02-14T13:18:49;8.37;;;3.97;;
4638;SDS011;2332;38.646;-9.154;2023-02-14T13:21:18;18.90;;;4.80;;
4638;SDS011;2332;38.646;-9.154;2023-02-14T13:23:46;14.53;;;4.70;;
4638;SDS011;2332;38.646;-9.154;2023-02-14T13:28:47;14.57;;;4.40;;
4638;SDS011;2332;38.646;-9.154;2023-02-14T13:31:14;10.27;;;3.90;;
4638;SDS011;2332;38.646;-9.154;2023-02-14T13:33:43;15.70;;;4.67;;
4638;SDS011;2332;38.646;-9.154;2023-02-14T13:36:12;9.87;;;3.90;;
4638;SDS011;2332;38.646;-9.154;2023-02-14T13:38:46;16.20;;;3.93;;
4638;SDS011;2332;38.646;-9.154;2023-02-14T13:41:13;17.53;;;5.10;;
4638;SDS011;2332;38.646;-9.154;2023-02-14T13:43:49;8.00;;;3.97;;
4638;SDS011;2332;38.646;-9.154;2023-02-14T13:46:15;18.53;;;5.17;;
4638;SDS011;2332;38.646;-9.154;2023-02-14T13:48:42;11.33;;;4.97;;
4638;SDS011;2332;38.646;-9.154;2023-02-14T13:51:19;12.00;;;5.10;;
4638;SDS011;2332;38.646;-9.154;2023-02-14T13:53:45;17.47;;;4.77;;
4638;SDS011;2332;38.646;-9.154;2023-02-14T13:58:49;16.73;;;4.90;;
4638;SDS011;2332;38.646;-9.154;2023-02-14T14:03:51;11.53;;;4.33;;
4638;SDS011;2332;38.646;-9.154;2023-02-14T14:06:18;17.90;;;4.93;;
4638;SDS011;2332;38.646;-9.154;2023-02-14T14:08:44;14.30;;;4.23;;
4638;SDS011;2332;38.646;-9.154;2023-02-14T14:13:55;9.43;;;4.60;;
4638;SDS011;2332;38.646;-9.154;2023-02-14T14:18:58;13.53;;;5.03;;
4638;SDS011;2332;38.646;-9.154;2023-02-14T14:21:31;20.90;;;5.77;;
4638;SDS011;2332;38.646;-9.154;2023-02-14T14:26:39;16.70;;;4.70;;
4638;SDS011;2332;38.646;-9.154;2023-02-14T14:31:40;21.03;;;5.80;;
4638;SDS011;2332;38.646;-9.154;2023-02-14T14:34:06;17.00;;;4.70;;
4638;SDS011;2332;38.646;-9.154;2023-02-14T14:36:39;12.93;;;4.60;;
4638;SDS011;2332;38.646;-9.154;2023-02-14T14:39:04;18.03;;;5.93;;
4638;SDS011;2332;38.646;-9.154;2023-02-14T14:41:29;12.40;;;4.50;;
4638;SDS011;2332;38.646;-9.154;2023-02-14T14:43:57;13.07;;;4.93;;
4638;SDS011;2332;38.646;-9.154;2023-02-14T14:46:23;18.30;;;5.43;;
4638;SDS011;2332;38.646;-9.154;2023-02-14T14:48:49;16.17;;;4.87;;
4638;SDS011;2332;38.646;-9.154;2023-02-14T14:54:00;12.13;;;5.03;;
4638;SDS011;2332;38.646;-9.154;2023-02-14T14:56:27;17.17;;;5.23;;
4638;SDS011;2332;38.646;-9.154;2023-02-14T14:58:53;17.13;;;5.60;;
4638;SDS011;2332;38.646;-9.154;2023-02-14T15:01:29;18.27;;;5.00;;
4638;SDS011;2332;38.646;-9.154;2023-02-14T15:04:06;13.80;;;4.53;;
4638;SDS011;2332;38.646;-9.154;2023-02-14T15:06:31;19.53;;;5.50;;
4638;SDS011;2332;38.646;-9.154;2023-02-14T15:08:57;19.63;;;5.10;;
4638;SDS011;2332;38.646;-9.154;2023-02-14T15:11:26;19.20;;;4.63;;
4638;SDS011;2332;38.646;-9.154;2023-02-14T15:14:14;21.97;;;5.43;;
4638;SDS011;2332;38.646;-9.154;2023-02-14T15:19:10;19.87;;;5.60;;
4638;SDS011;2332;38.646;-9.154;2023-02-14T15:21:39;20.00;;;6.33;;
4638;SDS011;2332;38.646;-9.154;2023-02-14T15:24:04;13.20;;;5.13;;
4638;SDS011;2332;38.646;-9.154;2023-02-14T15:26:35;14.63;;;5.00;;
4638;SDS011;2332;38.646;-9.154;2023-02-14T15:29:01;25.33;;;6.63;;
4638;SDS011;2332;38.646;-9.154;2023-02-14T15:31:28;25.33;;;5.43;;
4638;SDS011;2332;38.646;-9.154;2023-02-14T15:33:54;12.97;;;5.23;;
4638;SDS011;2332;38.646;-9.154;2023-02-14T15:36:20;19.83;;;5.20;;
4638;SDS011;2332;38.646;-9.154;2023-02-14T15:38:48;14.50;;;5.57;;
4638;SDS011;2332;38.646;-9.154;2023-02-14T15:41:14;13.20;;;5.10;;
4638;SDS011;2332;38.646;-9.154;2023-02-14T15:43:40;18.33;;;4.90;;
4638;SDS011;2332;38.646;-9.154;2023-02-14T15:46:18;24.30;;;5.03;;
4638;SDS011;2332;38.646;-9.154;2023-02-14T15:48:44;14.57;;;4.97;;
4638;SDS011;2332;38.646;-9.154;2023-02-14T15:51:20;19.17;;;4.73;;
4638;SDS011;2332;38.646;-9.154;2023-02-14T15:53:50;25.47;;;6.23;;
4638;SDS011;2332;38.646;-9.154;2023-02-14T15:58:50;24.90;;;6.20;;
4638;SDS011;2332;38.646;-9.154;2023-02-14T16:01:19;16.73;;;5.23;;
4638;SDS011;2332;38.646;-9.154;2023-02-14T16:03:47;16.80;;;5.67;;
4638;SDS011;2332;38.646;-9.154;2023-02-14T16:06:15;21.23;;;4.97;;
4638;SDS011;2332;38.646;-9.154;2023-02-14T16:08:54;22.13;;;5.00;;
4638;SDS011;2332;38.646;-9.154;2023-02-14T16:11:30;21.03;;;5.03;;
4638;SDS011;2332;38.646;-9.154;2023-02-14T16:13:56;13.40;;;4.87;;
4638;SDS011;2332;38.646;-9.154;2023-02-14T16:16:21;16.93;;;5.47;;
4638;SDS011;2332;38.646;-9.154;2023-02-14T16:18:56;18.47;;;5.73;;
4638;SDS011;2332;38.646;-9.154;2023-02-14T16:21:22;17.97;;;5.70;;
4638;SDS011;2332;38.646;-9.154;2023-02-14T16:26:39;22.43;;;6.13;;
4638;SDS011;2332;38.646;-9.154;2023-02-14T16:29:05;18.17;;;5.50;;
4638;SDS011;2332;38.646;-9.154;2023-02-14T16:31:31;18.23;;;5.83;;
4638;SDS011;2332;38.646;-9.154;2023-02-14T16:33:56;13.63;;;5.90;;
4638;SDS011;2332;38.646;-9.154;2023-02-14T16:36:26;18.70;;;5.43;;
4638;SDS011;2332;38.646;-9.154;2023-02-14T16:38:52;18.83;;;5.00;;
4638;SDS011;2332;38.646;-9.154;2023-02-14T16:41:22;19.97;;;6.17;;
4638;SDS011;2332;38.646;-9.154;2023-02-14T16:43:48;18.07;;;5.87;;
4638;SDS011;2332;38.646;-9.154;2023-02-14T16:46:14;17.73;;;5.23;;
4638;SDS011;2332;38.646;-9.154;2023-02-14T16:48:40;12.63;;;4.97;;
4638;SDS011;2332;38.646;-9.154;2023-02-14T16:51:07;13.87;;;5.43;;
4638;SDS011;2332;38.646;-9.154;2023-02-14T16:53:33;17.97;;;5.40;;
4638;SDS011;2332;38.646;-9.154;2023-02-14T16:56:00;21.77;;;6.27;;
4638;SDS011;2332;38.646;-9.154;2023-02-14T16:58:27;15.57;;;5.37;;
4638;SDS011;2332;38.646;-9.154;2023-02-14T17:00:53;18.57;;;6.23;;
4638;SDS011;2332;38.646;-9.154;2023-02-14T17:03:20;25.60;;;6.67;;
4638;SDS011;2332;38.646;-9.154;2023-02-14T17:05:45;15.43;;;5.50;;
4638;SDS011;2332;38.646;-9.154;2023-02-14T17:08:11;19.77;;;6.23;;
4638;SDS011;2332;38.646;-9.154;2023-02-14T17:10:38;19.17;;;5.77;;
4638;SDS011;2332;38.646;-9.154;2023-02-14T17:13:03;23.30;;;6.33;;